createdAt,value
2018-06-23T00:01:48.593Z,16.20
2018-06-23T00:04:17.500Z,16.20
2018-06-23T00:06:46.400Z,16.20
2018-06-23T00:09:15.447Z,16.20
2018-06-23T00:11:44.365Z,16.10
2018-06-23T00:14:15.515Z,16.10
2018-06-23T00:16:44.603Z,16.10
2018-06-23T00:19:13.750Z,16.10
2018-06-23T00:21:42.922Z,16.10
2018-06-23T00:24:11.876Z,16.10
2018-06-23T00:26:40.740Z,16.10
2018-06-23T00:29:09.932Z,16.10
2018-06-23T00:31:38.945Z,16.10
2018-06-23T00:34:07.868Z,16.10
2018-06-23T00:36:37.022Z,16.00
2018-06-23T00:39:08.095Z,16.00
2018-06-23T00:41:37.309Z,16.00
2018-06-23T00:44:06.793Z,16.00
2018-06-23T00:46:35.659Z,16.00
2018-06-23T00:49:05.206Z,16.00
2018-06-23T00:51:34.284Z,16.00
2018-06-23T00:54:03.400Z,16.00
2018-06-23T00:56:32.408Z,16.00
2018-06-23T00:59:12.717Z,16.00
2018-06-23T01:01:41.676Z,16.00
2018-06-23T01:04:10.894Z,16.00
2018-06-23T01:06:39.896Z,16.00
2018-06-23T01:09:09.932Z,16.00
2018-06-23T01:11:39.165Z,16.00
2018-06-23T01:14:08.156Z,16.00
2018-06-23T01:16:37.167Z,16.00
2018-06-23T01:19:06.327Z,16.00
2018-06-23T01:21:35.383Z,16.00
2018-06-23T01:24:04.591Z,16.00
2018-06-23T01:26:33.604Z,16.00
2018-06-23T01:29:02.493Z,16.00
2018-06-23T01:31:31.543Z,16.00
2018-06-23T01:34:00.626Z,16.00
2018-06-23T01:36:29.585Z,16.00
2018-06-23T01:38:58.641Z,16.00
2018-06-23T01:41:27.488Z,16.00
2018-06-23T01:43:56.487Z,16.00
2018-06-23T01:46:25.488Z,16.00
2018-06-23T01:48:54.703Z,16.00
2018-06-23T01:51:23.631Z,16.00
2018-06-23T01:53:52.643Z,16.00
2018-06-23T01:56:21.501Z,16.00
2018-06-23T01:58:50.365Z,16.00
2018-06-23T02:01:19.239Z,16.00
2018-06-23T02:03:48.263Z,16.00
2018-06-23T02:06:17.703Z,16.00
2018-06-23T02:08:46.930Z,16.00
2018-06-23T02:11:15.823Z,16.10
2018-06-23T02:13:44.797Z,16.00
2018-06-23T02:16:19.149Z,16.00
2018-06-23T02:19:54.048Z,16.00
2018-06-23T02:22:28.323Z,16.00
2018-06-23T02:25:02.693Z,16.00
2018-06-23T02:27:37.151Z,16.00
2018-06-23T02:30:11.783Z,16.00
2018-06-23T02:32:47.842Z,16.00
2018-06-23T02:35:16.751Z,16.00
2018-06-23T02:37:45.767Z,16.00
2018-06-23T02:40:14.611Z,16.00
2018-06-23T02:42:43.785Z,16.00
2018-06-23T02:45:12.873Z,16.00
2018-06-23T02:47:41.896Z,16.00
2018-06-23T02:50:10.916Z,16.00
2018-06-23T02:52:39.804Z,16.00
2018-06-23T02:55:08.844Z,16.00
2018-06-23T02:57:37.970Z,16.00
2018-06-23T03:00:06.863Z,16.10
2018-06-23T03:02:35.851Z,16.10
2018-06-23T03:07:33.778Z,16.10
2018-06-23T03:10:02.968Z,16.10
2018-06-23T03:12:31.847Z,16.10
2018-06-23T03:15:00.930Z,16.10
2018-06-23T03:17:29.796Z,16.10
2018-06-23T03:19:58.759Z,16.10
2018-06-23T03:22:27.793Z,16.10
2018-06-23T03:24:56.762Z,16.10
2018-06-23T03:27:25.717Z,16.10
2018-06-23T03:29:54.713Z,16.10
2018-06-23T03:32:23.887Z,16.10
2018-06-23T03:34:52.824Z,16.10
2018-06-23T03:37:22.117Z,16.10
2018-06-23T03:39:51.000Z,16.10
2018-06-23T03:42:19.886Z,16.10
2018-06-23T03:44:48.903Z,16.10
2018-06-23T03:47:17.838Z,16.10
2018-06-23T03:49:46.796Z,16.10
2018-06-23T03:52:15.697Z,16.10
2018-06-23T03:54:44.584Z,16.20
2018-06-23T03:57:13.751Z,16.20
2018-06-23T03:59:42.856Z,16.20
2018-06-23T04:02:11.758Z,16.20
2018-06-23T04:04:40.586Z,16.20
2018-06-23T04:07:09.472Z,16.20
2018-06-23T04:09:38.363Z,16.20
2018-06-23T04:12:07.277Z,16.20
2018-06-23T04:14:36.165Z,16.20
2018-06-23T04:17:05.020Z,16.20
2018-06-23T04:19:33.978Z,16.20
2018-06-23T04:24:31.451Z,16.20
2018-06-23T04:29:29.171Z,16.20
2018-06-23T04:31:58.116Z,16.30
2018-06-23T04:34:26.962Z,16.30
2018-06-23T04:36:55.945Z,16.30
2018-06-23T04:39:24.795Z,16.30
2018-06-23T04:41:53.668Z,16.30
2018-06-23T04:44:22.552Z,16.30
2018-06-23T04:46:51.403Z,16.30
2018-06-23T04:49:20.297Z,16.30
2018-06-23T04:51:49.326Z,16.30
2018-06-23T04:54:18.217Z,16.40
2018-06-23T04:56:47.080Z,16.40
2018-06-23T04:59:16.011Z,16.40
2018-06-23T05:01:47.610Z,16.40
2018-06-23T05:04:16.497Z,16.40
2018-06-23T05:06:45.368Z,16.40
2018-06-23T05:09:14.569Z,16.50
2018-06-23T05:11:47.025Z,16.50
2018-06-23T05:14:16.123Z,16.50
2018-06-23T05:16:45.086Z,16.50
2018-06-23T05:19:14.228Z,16.60
2018-06-23T05:21:43.092Z,16.60
2018-06-23T05:24:11.964Z,16.70
2018-06-23T05:26:40.951Z,16.70
2018-06-23T05:29:09.826Z,16.80
2018-06-23T05:31:38.686Z,16.90
2018-06-23T05:36:36.157Z,17.10
2018-06-23T05:39:07.656Z,17.30
2018-06-23T05:41:42.245Z,17.50
2018-06-23T05:44:11.205Z,17.70
2018-06-23T05:46:40.157Z,17.80
2018-06-23T05:49:09.278Z,18.00
2018-06-23T05:51:41.009Z,18.20
2018-06-23T05:54:09.882Z,18.30
2018-06-23T05:56:39.193Z,18.50
2018-06-23T05:59:08.255Z,18.60
2018-06-23T06:01:37.408Z,18.60
2018-06-23T06:04:06.517Z,18.70
2018-06-23T06:06:35.493Z,18.80
2018-06-23T06:09:08.587Z,18.90
2018-06-23T06:11:37.626Z,18.90
2018-06-23T06:14:06.711Z,19.10
2018-06-23T06:17:39.805Z,19.20
2018-06-23T06:20:12.181Z,19.30
2018-06-23T06:22:42.260Z,19.60
2018-06-23T06:25:12.958Z,19.70
2018-06-23T06:27:42.049Z,19.90
2018-06-23T06:30:11.765Z,20.00
2018-06-23T06:32:40.618Z,20.10
2018-06-23T06:35:09.525Z,20.30
2018-06-23T06:37:38.565Z,20.30
2018-06-23T06:40:08.082Z,20.40
2018-06-23T06:42:37.085Z,20.50
2018-06-23T06:45:06.897Z,20.50
2018-06-23T06:47:35.772Z,20.60
2018-06-23T06:50:06.509Z,20.60
2018-06-23T06:52:35.342Z,20.60
2018-06-23T06:55:32.178Z,20.60
2018-06-23T06:58:01.133Z,20.60
2018-06-23T07:00:30.118Z,20.60
2018-06-23T07:02:59.043Z,20.60
2018-06-23T07:05:27.898Z,20.70
2018-06-23T07:07:56.938Z,20.70
2018-06-23T07:10:25.887Z,20.70
2018-06-23T07:12:55.031Z,20.70
2018-06-23T07:15:23.955Z,20.70
2018-06-23T07:17:54.447Z,20.70
2018-06-23T07:20:23.936Z,20.70
2018-06-23T07:25:21.846Z,20.80
2018-06-23T07:27:52.849Z,20.80
2018-06-23T07:30:21.798Z,20.90
2018-06-23T07:32:52.046Z,20.90
2018-06-23T07:35:20.956Z,20.90
2018-06-23T07:37:49.776Z,20.90
2018-06-23T07:40:19.154Z,20.90
2018-06-23T07:42:48.082Z,20.90
2018-06-23T07:45:16.927Z,20.90
2018-06-23T07:47:45.771Z,21.00
2018-06-23T07:52:43.102Z,21.00
2018-06-23T07:55:12.249Z,21.00
2018-06-23T07:57:41.186Z,21.00
2018-06-23T08:00:11.141Z,21.00
2018-06-23T08:02:40.040Z,21.00
2018-06-23T08:05:08.980Z,21.10
2018-06-23T08:07:37.918Z,21.10
2018-06-23T08:10:07.128Z,21.10
2018-06-23T08:12:36.120Z,21.10
2018-06-23T08:15:06.542Z,21.20
2018-06-23T08:17:35.442Z,21.20
2018-06-23T08:20:04.404Z,21.30
2018-06-23T08:22:33.388Z,21.30
2018-06-23T08:25:02.562Z,21.30
2018-06-23T08:27:32.215Z,21.40
2018-06-23T08:30:01.668Z,21.40
2018-06-23T08:32:31.482Z,21.50
2018-06-23T08:35:00.714Z,21.50
2018-06-23T08:37:29.994Z,21.60
2018-06-23T08:39:59.118Z,21.60
2018-06-23T08:42:28.147Z,21.70
2018-06-23T08:44:58.279Z,21.70
2018-06-23T08:47:29.346Z,21.80
2018-06-23T08:49:58.214Z,21.80
2018-06-23T08:52:28.392Z,21.80
2018-06-23T08:54:58.341Z,21.90
2018-06-23T08:57:27.978Z,21.90
2018-06-23T08:59:57.743Z,21.90
2018-06-23T09:02:29.513Z,22.00
2018-06-23T09:04:58.435Z,22.00
2018-06-23T09:07:27.313Z,22.10
2018-06-23T09:09:56.245Z,22.10
2018-06-23T09:12:25.196Z,22.10
2018-06-23T09:14:54.080Z,22.20
2018-06-23T09:17:23.073Z,22.20
2018-06-23T09:19:52.218Z,22.20
2018-06-23T09:22:22.267Z,22.20
2018-06-23T09:24:51.331Z,22.20
2018-06-23T09:27:21.980Z,22.20
2018-06-23T09:29:53.206Z,22.30
2018-06-23T09:32:22.165Z,22.30
2018-06-23T09:34:51.139Z,22.40
2018-06-23T09:37:21.177Z,22.40
2018-06-23T09:39:50.992Z,22.50
2018-06-23T09:42:22.132Z,22.50
2018-06-23T09:44:51.581Z,22.60
2018-06-23T09:47:23.062Z,22.60
2018-06-23T09:49:52.354Z,22.70
2018-06-23T09:52:21.532Z,22.70
2018-06-23T09:54:50.426Z,22.80
2018-06-23T09:57:23.185Z,22.80
2018-06-23T09:59:52.217Z,22.90
2018-06-23T10:02:24.946Z,22.90
2018-06-23T10:04:55.803Z,23.00
2018-06-23T10:07:24.914Z,23.00
2018-06-23T10:09:54.111Z,23.10
2018-06-23T10:12:23.486Z,23.10
2018-06-23T10:14:52.540Z,23.20
2018-06-23T10:17:21.624Z,23.20
2018-06-23T10:19:50.685Z,23.20
2018-06-23T10:22:19.737Z,23.20
2018-06-23T10:24:48.744Z,23.30
2018-06-23T10:27:18.478Z,23.30
2018-06-23T10:29:47.482Z,23.40
2018-06-23T10:32:23.338Z,23.40
2018-06-23T10:34:52.808Z,23.50
2018-06-23T10:37:25.387Z,23.40
2018-06-23T10:39:54.298Z,23.50
2018-06-23T10:42:30.209Z,23.60
2018-06-23T10:46:04.024Z,23.60
2018-06-23T10:48:37.267Z,23.70
2018-06-23T10:51:24.037Z,23.70
2018-06-23T10:54:01.336Z,23.80
2018-06-23T10:56:34.716Z,23.90
2018-06-23T10:59:04.429Z,24.00
2018-06-23T11:01:34.115Z,24.00
2018-06-23T11:04:04.175Z,24.10
2018-06-23T11:06:33.254Z,24.20
2018-06-23T11:09:02.144Z,24.30
2018-06-23T11:11:33.518Z,24.30
2018-06-23T11:14:03.222Z,24.40
2018-06-23T11:16:32.338Z,24.40
2018-06-23T11:19:01.372Z,24.50
2018-06-23T11:21:32.695Z,24.60
2018-06-23T11:24:02.743Z,24.60
2018-06-23T11:26:32.418Z,24.70
2018-06-23T11:29:01.252Z,24.70
2018-06-23T11:31:30.267Z,24.80
2018-06-23T11:33:59.704Z,24.90
2018-06-23T11:36:28.706Z,24.90
2018-06-23T11:38:57.764Z,25.00
2018-06-23T11:41:28.927Z,25.10
2018-06-23T11:43:58.158Z,25.10
2018-06-23T11:46:27.065Z,25.20
2018-06-23T11:48:56.435Z,25.30
2018-06-23T11:51:34.226Z,25.30
2018-06-23T11:54:03.874Z,25.40
2018-06-23T11:56:32.761Z,25.50
2018-06-23T11:59:01.857Z,25.50
2018-06-23T12:01:31.857Z,25.70
2018-06-23T12:04:00.730Z,25.80
2018-06-23T12:06:29.576Z,25.90
2018-06-23T12:08:58.431Z,26.00
2018-06-23T12:11:27.489Z,26.10
2018-06-23T12:13:57.037Z,26.20
2018-06-23T12:16:25.906Z,26.30
2018-06-23T12:18:54.872Z,26.30
2018-06-23T12:21:24.037Z,26.50
2018-06-23T12:23:52.893Z,26.50
2018-06-23T12:26:21.825Z,26.60
2018-06-23T12:28:50.751Z,26.70
2018-06-23T12:31:19.638Z,26.80
2018-06-23T12:33:48.710Z,26.90
2018-06-23T12:36:17.620Z,26.90
2018-06-23T12:38:46.463Z,27.00
2018-06-23T12:41:15.420Z,27.10
2018-06-23T12:43:44.254Z,27.10
2018-06-23T12:46:13.143Z,27.20
2018-06-23T12:48:41.989Z,27.20
2018-06-23T12:51:10.905Z,27.30
2018-06-23T12:53:39.720Z,27.30
2018-06-23T12:56:08.632Z,27.30
2018-06-23T12:58:37.491Z,27.40
2018-06-23T13:01:06.393Z,27.40
2018-06-23T13:03:35.301Z,27.50
2018-06-23T13:06:04.670Z,27.50
2018-06-23T13:08:33.575Z,27.50
2018-06-23T13:11:02.564Z,27.50
2018-06-23T13:13:31.466Z,27.50
2018-06-23T13:16:00.355Z,27.50
2018-06-23T13:18:29.277Z,27.50
2018-06-23T13:20:58.872Z,27.50
2018-06-23T13:23:27.779Z,27.50
2018-06-23T13:25:56.699Z,27.50
2018-06-23T13:28:25.604Z,27.50
2018-06-23T13:30:54.444Z,27.50
2018-06-23T13:33:23.291Z,27.50
2018-06-23T13:35:52.494Z,27.50
2018-06-23T13:38:21.312Z,27.50
2018-06-23T13:40:50.179Z,27.50
2018-06-23T13:43:18.988Z,27.40
2018-06-23T13:45:48.109Z,27.40
2018-06-23T13:48:16.970Z,27.40
2018-06-23T13:50:45.865Z,27.30
2018-06-23T13:53:14.713Z,27.30
2018-06-23T13:55:43.579Z,27.30
2018-06-23T13:58:12.420Z,27.30
2018-06-23T14:00:41.335Z,27.30
2018-06-23T14:03:10.291Z,27.30
2018-06-23T14:05:39.177Z,27.20
2018-06-23T14:08:08.042Z,27.20
2018-06-23T14:10:36.921Z,27.20
2018-06-23T14:13:05.895Z,27.20
2018-06-23T14:15:34.773Z,27.20
2018-06-23T14:18:04.627Z,27.10
2018-06-23T14:20:33.541Z,27.10
2018-06-23T14:23:02.388Z,27.10
2018-06-23T14:25:31.335Z,27.10
2018-06-23T14:28:00.192Z,27.10
2018-06-23T14:30:32.433Z,27.00
2018-06-23T14:35:29.852Z,27.00
2018-06-23T14:37:58.825Z,26.90
2018-06-23T14:40:27.660Z,26.90
2018-06-23T14:42:56.596Z,26.90
2018-06-23T14:45:25.435Z,26.90
2018-06-23T14:47:54.312Z,26.90
2018-06-23T14:50:23.147Z,26.80
2018-06-23T14:52:52.018Z,26.80
2018-06-23T14:55:20.860Z,26.80
2018-06-23T14:57:49.757Z,26.80
2018-06-23T15:00:18.671Z,26.80
2018-06-23T15:02:47.527Z,26.80
2018-06-23T15:05:16.407Z,26.80
2018-06-23T15:07:45.974Z,26.80
2018-06-23T15:10:26.332Z,26.80
2018-06-23T15:13:06.609Z,26.80
2018-06-23T15:15:35.574Z,26.80
2018-06-23T15:18:04.445Z,26.80
2018-06-23T15:20:33.288Z,26.80
2018-06-23T15:23:02.237Z,26.80
2018-06-23T15:25:31.171Z,26.80
2018-06-23T15:28:00.075Z,26.80
2018-06-23T15:30:29.164Z,26.80
2018-06-23T15:32:57.992Z,26.80
2018-06-23T15:35:27.196Z,26.80
2018-06-23T15:37:56.333Z,26.80
2018-06-23T15:40:25.344Z,26.80
2018-06-23T15:42:54.160Z,26.80
2018-06-23T15:45:23.097Z,26.80
2018-06-23T15:47:53.197Z,26.90
2018-06-23T15:50:22.037Z,26.90
2018-06-23T15:52:50.876Z,26.90
2018-06-23T15:55:19.759Z,26.90
2018-06-23T15:57:48.636Z,27.00
2018-06-23T16:00:17.552Z,27.00
2018-06-23T16:02:46.548Z,27.10
2018-06-23T16:05:15.365Z,27.10
2018-06-23T16:07:44.221Z,27.10
2018-06-23T16:10:22.231Z,27.20
2018-06-23T16:12:51.082Z,27.20
2018-06-23T16:15:19.937Z,27.30
2018-06-23T16:17:48.789Z,27.30
2018-06-23T16:20:17.634Z,27.40
2018-06-23T16:22:47.186Z,27.40
2018-06-23T16:25:16.447Z,27.50
2018-06-23T16:27:45.287Z,27.60
2018-06-23T16:30:14.152Z,27.70
2018-06-23T16:32:43.455Z,27.70
2018-06-23T16:35:12.518Z,27.70
2018-06-23T16:37:41.195Z,27.80
2018-06-23T16:40:10.073Z,27.80
2018-06-23T16:42:38.880Z,27.90
2018-06-23T16:45:07.738Z,27.90
2018-06-23T16:47:36.548Z,27.90
2018-06-23T16:50:06.311Z,27.90
2018-06-23T16:52:35.172Z,28.00
2018-06-23T16:55:04.829Z,28.00
2018-06-23T16:57:33.655Z,28.00
2018-06-23T17:00:02.486Z,28.00
2018-06-23T17:02:31.396Z,28.00
2018-06-23T17:05:00.332Z,28.00
2018-06-23T17:07:29.419Z,28.00
2018-06-23T17:09:58.771Z,28.00
2018-06-23T17:12:27.741Z,28.00
2018-06-23T17:14:56.629Z,28.00
2018-06-23T17:17:25.488Z,28.00
2018-06-23T17:19:54.352Z,27.90
2018-06-23T17:22:23.196Z,28.00
2018-06-23T17:24:52.043Z,27.90
2018-06-23T17:27:20.952Z,27.90
2018-06-23T17:29:49.769Z,27.90
2018-06-23T17:32:18.607Z,27.90
2018-06-23T17:34:47.698Z,27.90
2018-06-23T17:37:16.545Z,27.90
2018-06-23T17:39:45.416Z,27.90
2018-06-23T17:42:14.269Z,27.80
2018-06-23T17:44:43.111Z,27.80
2018-06-23T17:47:11.962Z,27.80
2018-06-23T17:49:41.071Z,27.80
2018-06-23T17:52:09.941Z,27.70
2018-06-23T17:54:38.824Z,27.70
2018-06-23T17:57:08.174Z,27.70
2018-06-23T17:59:36.975Z,27.70
2018-06-23T18:02:05.886Z,27.60
2018-06-23T18:04:34.735Z,27.60
2018-06-23T18:07:04.810Z,27.50
2018-06-23T18:09:33.680Z,27.50
2018-06-23T18:12:03.178Z,27.40
2018-06-23T18:14:32.065Z,27.30
2018-06-23T18:17:00.901Z,27.30
2018-06-23T18:19:29.764Z,27.20
2018-06-23T18:21:58.680Z,27.20
2018-06-23T18:24:27.713Z,27.10
2018-06-23T18:26:56.600Z,27.00
2018-06-23T18:29:25.482Z,26.90
2018-06-23T18:31:55.448Z,26.80
2018-06-23T18:34:24.324Z,26.70
2018-06-23T18:36:53.159Z,26.60
2018-06-23T18:39:22.068Z,26.50
2018-06-23T18:41:54.092Z,26.40
2018-06-23T18:44:22.970Z,26.30
2018-06-23T18:46:52.285Z,26.20
2018-06-23T18:49:21.167Z,26.10
2018-06-23T18:51:50.123Z,25.90
2018-06-23T18:54:19.045Z,25.80
2018-06-23T18:56:47.987Z,25.70
2018-06-23T18:59:16.895Z,25.60
2018-06-23T19:01:45.772Z,25.50
2018-06-23T19:04:14.923Z,25.40
2018-06-23T19:06:43.817Z,25.20
2018-06-23T19:09:12.794Z,25.10
2018-06-23T19:11:41.610Z,25.00
2018-06-23T19:14:10.444Z,24.90
2018-06-23T19:16:39.308Z,24.80
2018-06-23T19:19:08.278Z,24.60
2018-06-23T19:21:37.325Z,24.50
2018-06-23T19:24:06.353Z,24.40
2018-06-23T19:26:35.337Z,24.30
2018-06-23T19:29:04.711Z,24.20
2018-06-23T19:31:34.599Z,24.10
2018-06-23T19:34:03.413Z,24.00
2018-06-23T19:36:32.302Z,23.90
2018-06-23T19:39:01.240Z,23.80
2018-06-23T19:41:30.300Z,23.70
2018-06-23T19:43:59.337Z,23.60
2018-06-23T19:46:28.201Z,23.50
2018-06-23T19:48:57.081Z,23.50
2018-06-23T19:51:25.985Z,23.30
2018-06-23T19:53:54.911Z,23.30
2018-06-23T19:56:23.744Z,23.20
2018-06-23T19:58:52.635Z,23.10
2018-06-23T20:01:21.561Z,23.00
2018-06-23T20:03:50.510Z,22.90
2018-06-23T20:06:19.366Z,23.00
2018-06-23T20:08:48.218Z,22.80
2018-06-23T20:11:17.093Z,22.80
2018-06-23T20:13:45.931Z,22.70
2018-06-23T20:16:15.295Z,22.60
2018-06-23T20:18:44.135Z,22.50
2018-06-23T20:21:12.992Z,22.40
2018-06-23T20:23:41.847Z,22.40
2018-06-23T20:26:10.660Z,22.30
2018-06-23T20:28:40.110Z,22.20
2018-06-23T20:31:08.994Z,22.10
2018-06-23T20:33:37.835Z,22.00
2018-06-23T20:36:06.780Z,22.00
2018-06-23T20:38:35.690Z,21.90
2018-06-23T20:41:04.684Z,21.80
2018-06-23T20:43:33.586Z,21.70
2018-06-23T20:46:02.442Z,21.70
2018-06-23T20:48:31.304Z,21.60
2018-06-23T20:51:00.156Z,21.50
2018-06-23T20:53:29.012Z,21.40
2018-06-23T20:55:57.830Z,21.40
2018-06-23T20:58:26.659Z,21.30
2018-06-23T21:00:55.922Z,21.20
2018-06-23T21:03:24.717Z,21.20
2018-06-23T21:05:53.563Z,21.10
2018-06-23T21:10:50.988Z,21.00
2018-06-23T21:13:19.887Z,20.90
2018-06-23T21:15:48.741Z,20.90
2018-06-23T21:18:17.628Z,20.80
2018-06-23T21:20:46.465Z,20.70
2018-06-23T21:23:15.305Z,20.70
2018-06-23T21:25:44.183Z,20.70
2018-06-23T21:28:13.053Z,20.60
2018-06-23T21:30:41.974Z,20.50
2018-06-23T21:33:10.802Z,20.50
2018-06-23T21:35:39.601Z,20.40
2018-06-23T21:38:08.472Z,20.30
2018-06-23T21:40:37.328Z,20.30
2018-06-23T21:43:06.154Z,20.20
2018-06-23T21:45:35.012Z,20.20
2018-06-23T21:48:04.566Z,20.10
2018-06-23T21:53:01.947Z,20.00
2018-06-23T21:55:31.033Z,20.00
2018-06-23T21:57:59.984Z,19.90
2018-06-23T22:00:35.785Z,19.90
2018-06-23T22:03:12.631Z,19.80
2018-06-23T22:05:41.547Z,19.70
2018-06-23T22:08:10.706Z,19.70
2018-06-23T22:10:39.567Z,19.60
2018-06-23T22:13:08.533Z,19.60
2018-06-23T22:15:37.376Z,19.50
2018-06-23T22:18:06.206Z,19.50
2018-06-23T22:20:35.185Z,19.40
2018-06-23T22:23:04.721Z,19.40
2018-06-23T22:25:34.387Z,19.30
2018-06-23T22:28:03.233Z,19.30
2018-06-23T22:30:32.098Z,19.20
2018-06-23T22:33:00.985Z,19.20
2018-06-23T22:35:29.856Z,19.10
2018-06-23T22:37:58.695Z,19.10
2018-06-23T22:40:27.546Z,19.00
2018-06-23T22:42:56.414Z,19.00
2018-06-23T22:45:25.272Z,18.90
2018-06-23T22:47:54.149Z,18.90
2018-06-23T22:50:22.990Z,18.90
2018-06-23T22:52:51.815Z,18.80
2018-06-23T22:55:20.741Z,18.80
2018-06-23T22:57:49.685Z,18.80
2018-06-23T23:00:18.512Z,18.70
2018-06-23T23:02:47.376Z,18.70
2018-06-23T23:05:16.791Z,18.60
2018-06-23T23:07:45.700Z,18.60
2018-06-23T23:10:14.527Z,18.60
2018-06-23T23:12:43.432Z,18.60
2018-06-23T23:15:12.308Z,18.60
2018-06-23T23:17:41.760Z,18.50
2018-06-23T23:20:10.732Z,18.50
2018-06-23T23:22:39.545Z,18.50
2018-06-23T23:25:08.397Z,18.40
2018-06-23T23:27:37.286Z,18.40
2018-06-23T23:30:07.074Z,18.40
2018-06-23T23:32:35.906Z,18.30
2018-06-23T23:35:04.830Z,18.30
2018-06-23T23:37:33.761Z,18.30
2018-06-23T23:40:02.649Z,18.30
2018-06-23T23:42:31.527Z,18.20
2018-06-23T23:45:00.396Z,18.20
2018-06-23T23:47:29.231Z,18.20
2018-06-23T23:49:58.122Z,18.20
2018-06-23T23:52:26.952Z,18.20
2018-06-23T23:54:55.798Z,18.10
2018-06-23T23:57:24.656Z,18.20
2018-06-23T23:59:53.518Z,18.10
